createdAt,value
2017-02-04T00:00:09.935Z,0
2017-02-04T00:01:24.416Z,0
2017-02-04T00:02:39.803Z,0
2017-02-04T00:03:55.415Z,0
2017-02-04T00:05:09.721Z,0
2017-02-04T00:06:25.342Z,0
2017-02-04T00:07:40.021Z,0
2017-02-04T00:08:55.200Z,0
2017-02-04T00:10:10.222Z,0
2017-02-04T00:11:25.314Z,0
2017-02-04T00:12:39.832Z,0
2017-02-04T00:13:54.490Z,0
2017-02-04T00:15:08.828Z,0
2017-02-04T00:16:22.988Z,0
2017-02-04T00:17:38.363Z,0
2017-02-04T00:18:52.536Z,0
2017-02-04T00:20:06.983Z,0
2017-02-04T00:21:21.379Z,0
2017-02-04T00:22:35.377Z,0
2017-02-04T00:23:50.030Z,0
2017-02-04T00:25:04.507Z,0
2017-02-04T00:26:19.566Z,0
2017-02-04T00:27:33.811Z,0
2017-02-04T00:28:47.971Z,0
2017-02-04T00:30:02.409Z,0
2017-02-04T00:31:17.131Z,0
2017-02-04T00:32:32.004Z,0
2017-02-04T00:33:48.218Z,0
2017-02-04T00:35:02.842Z,0
2017-02-04T00:36:17.971Z,0
2017-02-04T00:37:33.069Z,0
2017-02-04T00:38:47.033Z,0
2017-02-04T00:40:01.463Z,0
2017-02-04T00:41:15.423Z,0
2017-02-04T00:42:29.563Z,0
2017-02-04T00:43:43.541Z,0
2017-02-04T00:44:58.195Z,0
2017-02-04T00:46:12.922Z,0
2017-02-04T00:47:27.474Z,0
2017-02-04T00:48:41.903Z,0
2017-02-04T00:49:56.964Z,0
2017-02-04T00:51:10.937Z,0
2017-02-04T00:52:25.896Z,0
2017-02-04T00:53:40.450Z,0
2017-02-04T00:54:54.653Z,0
2017-02-04T00:56:09.564Z,0
2017-02-04T00:57:24.150Z,0
2017-02-04T00:58:39.402Z,0
2017-02-04T00:59:53.644Z,0
2017-02-04T01:02:29.970Z,0
2017-02-04T01:04:10.898Z,0
2017-02-04T01:05:30.407Z,0
2017-02-04T01:06:44.290Z,0
2017-02-04T01:08:12.761Z,0
2017-02-04T01:09:27.198Z,0
2017-02-04T01:10:41.137Z,0
2017-02-04T01:11:54.658Z,0
2017-02-04T01:13:09.008Z,0
2017-02-04T01:14:22.926Z,0
2017-02-04T01:15:36.922Z,0
2017-02-04T01:16:50.967Z,0
2017-02-04T01:18:04.616Z,0
2017-02-04T01:19:18.332Z,0
2017-02-04T01:20:32.007Z,0
2017-02-04T01:21:46.591Z,0
2017-02-04T01:23:00.616Z,0
2017-02-04T01:24:29.340Z,0
2017-02-04T01:25:43.209Z,0
2017-02-04T01:26:57.183Z,0
2017-02-04T01:28:10.843Z,0
2017-02-04T01:29:24.367Z,0
2017-02-04T01:30:38.033Z,0
2017-02-04T01:31:51.575Z,0
2017-02-04T01:33:20.711Z,0
2017-02-04T01:34:49.410Z,0
2017-02-04T01:36:02.892Z,0
2017-02-04T01:37:16.795Z,0
2017-02-04T01:38:30.585Z,0
2017-02-04T01:39:44.492Z,0
2017-02-04T01:40:58.314Z,0
2017-02-04T01:42:12.351Z,0
2017-02-04T01:43:25.863Z,0
2017-02-04T01:44:39.861Z,0
2017-02-04T01:45:53.997Z,0
2017-02-04T01:47:17.397Z,0
2017-02-04T01:48:31.446Z,0
2017-02-04T01:49:44.949Z,0
2017-02-04T01:50:58.684Z,0
2017-02-04T01:52:12.190Z,0
2017-02-04T01:53:26.226Z,0
2017-02-04T01:54:39.674Z,0
2017-02-04T01:55:53.242Z,0
2017-02-04T01:57:06.743Z,0
2017-02-04T01:58:20.559Z,0
2017-02-04T01:59:34.716Z,0
2017-02-04T02:00:48.291Z,0
2017-02-04T02:02:01.949Z,0
2017-02-04T02:03:15.628Z,0
2017-02-04T02:04:29.051Z,0
2017-02-04T02:05:42.993Z,0
2017-02-04T02:06:56.750Z,0
2017-02-04T02:08:10.395Z,0
2017-02-04T02:09:24.283Z,0
2017-02-04T02:10:38.485Z,0
2017-02-04T02:11:52.598Z,0
2017-02-04T02:13:06.959Z,0
2017-02-04T02:14:20.972Z,0
2017-02-04T02:15:34.766Z,0
2017-02-04T02:16:48.852Z,0
2017-02-04T02:18:02.486Z,0
2017-02-04T02:19:15.948Z,0
2017-02-04T02:20:29.724Z,0
2017-02-04T02:21:43.889Z,0
2017-02-04T02:22:59.850Z,0
2017-02-04T02:24:13.733Z,0
2017-02-04T02:25:27.768Z,0
2017-02-04T02:26:41.365Z,0
2017-02-04T02:27:55.854Z,0
2017-02-04T02:29:09.745Z,0
2017-02-04T02:30:23.804Z,0
2017-02-04T02:31:37.419Z,0
2017-02-04T02:32:51.307Z,0
2017-02-04T02:34:04.754Z,0
2017-02-04T02:35:18.322Z,0
2017-02-04T02:36:31.849Z,0
2017-02-04T02:37:45.542Z,0
2017-02-04T02:38:58.995Z,0
2017-02-04T02:40:12.572Z,0
2017-02-04T02:41:27.185Z,0
2017-02-04T02:42:41.242Z,0
2017-02-04T02:43:54.983Z,0
2017-02-04T02:45:09.308Z,0
2017-02-04T02:46:22.728Z,0
2017-02-04T02:47:36.488Z,0
2017-02-04T02:48:49.889Z,0
2017-02-04T02:50:03.586Z,0
2017-02-04T02:51:17.692Z,0
2017-02-04T02:52:31.569Z,0
2017-02-04T02:53:45.240Z,0
2017-02-04T02:54:58.872Z,0
2017-02-04T02:56:12.826Z,0
2017-02-04T02:57:26.477Z,0
2017-02-04T02:58:40.321Z,0
2017-02-04T02:59:53.988Z,0
2017-02-04T03:01:07.435Z,0
2017-02-04T03:02:21.247Z,0
2017-02-04T03:03:34.728Z,0
2017-02-04T03:04:48.448Z,0
2017-02-04T03:06:02.133Z,0
2017-02-04T03:07:15.698Z,0
2017-02-04T03:08:29.516Z,0
2017-02-04T03:09:43.149Z,0
2017-02-04T03:10:56.704Z,0
2017-02-04T03:12:10.568Z,0
2017-02-04T03:13:24.243Z,0
2017-02-04T03:14:37.853Z,0
2017-02-04T03:15:51.754Z,0
2017-02-04T03:17:05.389Z,0
2017-02-04T03:18:19.113Z,0
2017-02-04T03:19:32.986Z,0
2017-02-04T03:20:46.438Z,0
2017-02-04T03:22:00.168Z,0
2017-02-04T03:23:13.597Z,0
2017-02-04T03:24:27.309Z,0
2017-02-04T03:25:41.059Z,0
2017-02-04T03:26:54.927Z,0
2017-02-04T03:28:08.430Z,0
2017-02-04T03:29:22.200Z,0
2017-02-04T03:30:35.786Z,0
2017-02-04T03:31:49.701Z,0
2017-02-04T03:33:03.459Z,0
2017-02-04T03:34:17.213Z,0
2017-02-04T03:35:30.658Z,0
2017-02-04T03:36:44.259Z,0
2017-02-04T03:37:57.946Z,0
2017-02-04T03:39:14.016Z,0
2017-02-04T03:40:27.689Z,0
2017-02-04T03:41:41.555Z,0
2017-02-04T03:42:54.988Z,0
2017-02-04T03:44:08.624Z,0
2017-02-04T03:45:22.186Z,0
2017-02-04T03:46:35.899Z,0
2017-02-04T03:47:49.588Z,0
2017-02-04T03:49:03.177Z,0
2017-02-04T03:50:17.002Z,0
2017-02-04T03:51:30.726Z,0
2017-02-04T03:52:44.224Z,0
2017-02-04T03:53:57.888Z,0
2017-02-04T03:55:11.319Z,0
2017-02-04T03:56:25.002Z,0
2017-02-04T03:57:38.473Z,0
2017-02-04T03:58:52.601Z,0
2017-02-04T04:00:06.440Z,0
2017-02-04T04:01:20.145Z,0
2017-02-04T04:02:34.036Z,0
2017-02-04T04:03:47.719Z,0
2017-02-04T04:05:01.403Z,0
2017-02-04T04:06:15.053Z,0
2017-02-04T04:07:28.579Z,0
2017-02-04T04:08:42.251Z,0
2017-02-04T04:09:55.679Z,0
2017-02-04T04:11:09.784Z,0
2017-02-04T04:12:23.225Z,0
2017-02-04T04:13:37.258Z,0
2017-02-04T04:14:50.726Z,0
2017-02-04T04:16:04.314Z,0
2017-02-04T04:17:18.228Z,0
2017-02-04T04:18:31.929Z,0
2017-02-04T04:19:45.665Z,0
2017-02-04T04:20:59.234Z,0
2017-02-04T04:22:12.645Z,0
2017-02-04T04:23:26.836Z,0
2017-02-04T04:24:40.355Z,0
2017-02-04T04:25:54.145Z,0
2017-02-04T04:27:08.082Z,0
2017-02-04T04:28:21.766Z,0
2017-02-04T04:29:35.501Z,0
2017-02-04T04:30:49.129Z,0
2017-02-04T04:32:02.925Z,0
2017-02-04T04:33:16.588Z,0
2017-02-04T04:34:30.314Z,0
2017-02-04T04:35:44.057Z,0
2017-02-04T04:36:57.894Z,0
2017-02-04T04:38:11.569Z,0
2017-02-04T04:39:25.337Z,0
2017-02-04T04:40:39.076Z,0
2017-02-04T04:41:52.708Z,0
2017-02-04T04:43:06.313Z,0
2017-02-04T04:44:19.735Z,0
2017-02-04T04:45:33.697Z,0
2017-02-04T04:46:47.376Z,0
2017-02-04T04:48:01.366Z,0
2017-02-04T04:49:15.395Z,0
2017-02-04T04:50:29.064Z,0
2017-02-04T04:51:42.595Z,0
2017-02-04T04:52:56.321Z,0
2017-02-04T04:54:09.768Z,0
2017-02-04T04:55:25.788Z,0
2017-02-04T04:56:39.255Z,0
2017-02-04T04:57:52.959Z,0
2017-02-04T04:59:06.483Z,0
2017-02-04T05:00:20.323Z,0
2017-02-04T05:01:33.920Z,0
2017-02-04T05:02:47.598Z,0
2017-02-04T05:04:01.114Z,0
2017-02-04T05:05:14.825Z,0
2017-02-04T05:06:28.289Z,0
2017-02-04T05:07:41.887Z,0
2017-02-04T05:08:55.904Z,0
2017-02-04T05:10:10.591Z,0
2017-02-04T05:11:24.072Z,0
2017-02-04T05:12:37.809Z,0
2017-02-04T05:13:51.691Z,0
2017-02-04T05:15:05.967Z,0
2017-02-04T05:16:19.793Z,0
2017-02-04T05:17:33.813Z,0
2017-02-04T05:18:47.281Z,0
2017-02-04T05:20:01.000Z,0
2017-02-04T05:21:14.576Z,0
2017-02-04T05:22:28.579Z,0
2017-02-04T05:23:42.439Z,0
2017-02-04T05:24:56.800Z,0
2017-02-04T05:26:10.276Z,0
2017-02-04T05:27:24.095Z,0
2017-02-04T05:28:37.771Z,0
2017-02-04T05:29:51.698Z,0
2017-02-04T05:31:05.422Z,0
2017-02-04T05:32:19.181Z,0
2017-02-04T05:33:32.777Z,0
2017-02-04T05:34:46.670Z,0
2017-02-04T05:36:00.359Z,0
2017-02-04T05:37:14.106Z,0
2017-02-04T05:38:28.570Z,0
2017-02-04T05:39:42.317Z,0
2017-02-04T05:40:56.030Z,0
2017-02-04T05:42:09.788Z,0
2017-02-04T05:43:23.274Z,0
2017-02-04T05:44:37.104Z,0
2017-02-04T05:45:50.945Z,0
2017-02-04T05:47:04.785Z,0
2017-02-04T05:48:18.298Z,0
2017-02-04T05:49:31.894Z,0
2017-02-04T05:50:45.707Z,0
2017-02-04T05:52:19.155Z,0
2017-02-04T05:53:32.891Z,0
2017-02-04T05:54:46.379Z,0
2017-02-04T05:56:00.077Z,0
2017-02-04T05:57:13.503Z,0
2017-02-04T05:58:28.176Z,0
2017-02-04T05:59:41.588Z,0
2017-02-04T06:00:55.235Z,0
2017-02-04T06:02:08.911Z,0
2017-02-04T06:03:22.931Z,0
2017-02-04T06:04:36.651Z,0
2017-02-04T06:05:50.479Z,0
2017-02-04T06:07:04.009Z,0
2017-02-04T06:08:17.731Z,0
2017-02-04T06:09:31.917Z,0
2017-02-04T06:10:46.156Z,0
2017-02-04T06:12:02.215Z,0
2017-02-04T06:13:16.165Z,0
2017-02-04T06:14:29.862Z,0
2017-02-04T06:15:43.666Z,0
2017-02-04T06:16:57.519Z,0
2017-02-04T06:18:11.320Z,0
2017-02-04T06:19:25.494Z,0
2017-02-04T06:20:39.348Z,0
2017-02-04T06:21:53.225Z,0
2017-02-04T06:23:06.951Z,0
2017-02-04T06:24:20.583Z,0
2017-02-04T06:25:34.369Z,0
2017-02-04T06:26:48.106Z,4
2017-02-04T06:28:01.539Z,4
2017-02-04T06:29:15.774Z,4
2017-02-04T06:30:29.209Z,4
2017-02-04T06:31:42.945Z,4
2017-02-04T06:32:56.825Z,4
2017-02-04T06:34:10.673Z,8
2017-02-04T06:35:24.429Z,8
2017-02-04T06:36:39.124Z,12
2017-02-04T06:37:53.047Z,12
2017-02-04T06:39:07.185Z,16
2017-02-04T06:40:21.147Z,20
2017-02-04T06:41:35.133Z,24
2017-02-04T06:42:49.006Z,36
2017-02-04T06:44:02.645Z,40
2017-02-04T06:45:16.391Z,52
2017-02-04T06:46:30.327Z,60
2017-02-04T06:47:44.892Z,68
2017-02-04T06:48:58.657Z,80
2017-02-04T06:50:12.315Z,96
2017-02-04T06:51:26.010Z,104
2017-02-04T06:52:39.782Z,116
2017-02-04T06:53:53.930Z,128
2017-02-04T06:55:08.668Z,144
2017-02-04T06:56:22.471Z,152
2017-02-04T06:57:36.131Z,168
2017-02-04T06:58:50.589Z,180
2017-02-04T07:00:04.275Z,196
2017-02-04T07:01:18.177Z,208
2017-02-04T07:02:47.366Z,236
2017-02-04T07:04:00.906Z,252
2017-02-04T07:05:14.843Z,272
2017-02-04T07:06:28.416Z,296
2017-02-04T07:07:42.305Z,316
2017-02-04T07:08:55.715Z,336
2017-02-04T07:10:09.607Z,352
2017-02-04T07:11:38.620Z,368
2017-02-04T07:13:01.952Z,372
2017-02-04T07:14:15.732Z,388
2017-02-04T07:15:30.296Z,404
2017-02-04T07:16:44.380Z,432
2017-02-04T07:17:58.171Z,472
2017-02-04T07:19:12.421Z,504
2017-02-04T07:20:26.517Z,532
2017-02-04T07:21:40.631Z,552
2017-02-04T07:23:09.318Z,568
2017-02-04T07:24:23.842Z,580
2017-02-04T07:25:37.799Z,596
2017-02-04T07:26:52.119Z,632
2017-02-04T07:28:05.920Z,668
2017-02-04T07:29:22.101Z,700
2017-02-04T07:30:36.484Z,720
2017-02-04T07:31:50.612Z,744
2017-02-04T07:33:04.931Z,772
2017-02-04T07:34:19.234Z,800
2017-02-04T07:35:33.072Z,824
2017-02-04T07:36:47.447Z,848
2017-02-04T07:38:01.084Z,872
2017-02-04T07:39:15.277Z,892
2017-02-04T07:40:44.314Z,936
2017-02-04T07:41:58.231Z,968
2017-02-04T07:43:11.867Z,992
2017-02-04T07:44:25.627Z,1008
2017-02-04T07:45:39.534Z,1040
2017-02-04T07:46:53.360Z,1080
2017-02-04T07:48:07.241Z,1140
2017-02-04T07:49:20.783Z,1200
2017-02-04T07:50:35.022Z,1256
2017-02-04T07:51:48.644Z,1308
2017-02-04T07:53:02.395Z,1356
2017-02-04T07:54:16.087Z,1400
2017-02-04T07:55:44.106Z,1440
2017-02-04T07:56:57.959Z,1492
2017-02-04T07:58:11.737Z,1528
2017-02-04T07:59:25.488Z,1568
2017-02-04T08:00:39.037Z,1600
2017-02-04T08:01:52.918Z,1620
2017-02-04T08:03:06.956Z,1620
2017-02-04T08:04:20.579Z,1616
2017-02-04T08:05:34.296Z,1616
2017-02-04T08:06:47.938Z,1624
2017-02-04T08:08:01.673Z,1652
2017-02-04T08:09:15.798Z,1704
2017-02-04T08:10:29.259Z,1744
2017-02-04T08:11:42.882Z,1776
2017-02-04T08:12:56.313Z,1816
2017-02-04T08:14:10.734Z,1868
2017-02-04T08:15:24.452Z,1912
2017-02-04T08:16:38.408Z,1916
2017-02-04T08:17:51.831Z,1904
2017-02-04T08:19:06.040Z,1908
2017-02-04T08:20:20.020Z,1904
2017-02-04T08:21:33.614Z,1916
2017-02-04T08:22:47.734Z,1924
2017-02-04T08:24:02.138Z,1916
2017-02-04T08:25:15.631Z,1904
2017-02-04T08:26:29.744Z,1892
2017-02-04T08:27:43.232Z,1880
2017-02-04T08:28:57.078Z,1864
2017-02-04T08:30:10.544Z,1848
2017-02-04T08:31:24.613Z,1836
2017-02-04T08:32:38.721Z,1828
2017-02-04T08:33:52.570Z,1840
2017-02-04T08:35:06.166Z,1856
2017-02-04T08:36:20.049Z,1872
2017-02-04T08:37:33.519Z,1892
2017-02-04T08:38:47.371Z,1924
2017-02-04T08:40:00.890Z,1964
2017-02-04T08:41:14.727Z,2012
2017-02-04T08:42:28.408Z,2048
2017-02-04T08:43:42.031Z,2088
2017-02-04T08:44:56.153Z,2148
2017-02-04T08:46:11.939Z,2220
2017-02-04T08:47:25.892Z,2296
2017-02-04T08:48:39.671Z,2352
2017-02-04T08:49:53.873Z,2408
2017-02-04T08:51:11.071Z,2472
2017-02-04T08:52:25.069Z,2504
2017-02-04T08:53:39.561Z,2520
2017-02-04T08:54:53.186Z,2548
2017-02-04T08:56:06.905Z,2568
2017-02-04T08:57:20.801Z,2576
2017-02-04T08:58:35.060Z,2588
2017-02-04T08:59:48.977Z,2624
2017-02-04T09:01:05.429Z,2676
2017-02-04T09:02:20.269Z,2720
2017-02-04T09:03:35.543Z,2760
2017-02-04T09:04:49.295Z,2796
2017-02-04T09:06:03.187Z,2832
2017-02-04T09:07:16.802Z,2852
2017-02-04T09:08:30.572Z,2868
2017-02-04T09:09:44.840Z,2868
2017-02-04T09:10:58.319Z,2852
2017-02-04T09:12:11.978Z,2848
2017-02-04T09:13:25.927Z,2856
2017-02-04T09:14:39.807Z,2876
2017-02-04T09:15:53.509Z,2896
2017-02-04T09:17:07.356Z,2912
2017-02-04T09:18:21.094Z,2936
2017-02-04T09:19:34.810Z,2952
2017-02-04T09:20:48.270Z,2968
2017-02-04T09:22:02.309Z,3000
2017-02-04T09:23:15.990Z,3028
2017-02-04T09:24:30.086Z,3004
2017-02-04T09:25:43.678Z,3000
2017-02-04T09:27:16.421Z,2980
2017-02-04T09:28:30.064Z,2980
2017-02-04T09:29:43.825Z,2968
2017-02-04T09:30:59.583Z,2976
2017-02-04T09:32:14.072Z,2996
2017-02-04T09:33:28.279Z,2984
2017-02-04T09:34:42.299Z,2936
2017-02-04T09:35:56.299Z,2884
2017-02-04T09:37:10.225Z,2844
2017-02-04T09:38:23.708Z,2836
2017-02-04T09:39:37.696Z,2832
2017-02-04T09:40:51.224Z,2820
2017-02-04T09:42:05.506Z,2816
2017-02-04T09:43:19.245Z,2804
2017-02-04T09:44:32.889Z,2840
2017-02-04T09:45:46.678Z,2884
2017-02-04T09:47:22.226Z,2916
2017-02-04T09:48:36.956Z,2940
2017-02-04T09:49:50.956Z,2972
2017-02-04T09:51:05.199Z,3016
2017-02-04T09:52:18.755Z,3064
2017-02-04T09:53:32.697Z,3080
2017-02-04T09:54:46.398Z,3100
2017-02-04T09:56:17.614Z,3136
2017-02-04T09:57:31.498Z,3160
2017-02-04T09:58:45.132Z,3168
2017-02-04T09:59:59.911Z,3176
2017-02-04T10:01:13.869Z,3216
2017-02-04T10:02:28.573Z,3272
2017-02-04T10:03:47.401Z,3320
2017-02-04T10:05:01.139Z,3324
2017-02-04T10:06:14.902Z,3292
2017-02-04T10:07:28.413Z,3272
2017-02-04T10:08:42.650Z,3268
2017-02-04T10:09:56.518Z,3244
2017-02-04T10:11:10.572Z,3204
2017-02-04T10:12:24.487Z,3140
2017-02-04T10:13:38.216Z,3048
2017-02-04T10:14:51.638Z,2940
2017-02-04T10:16:19.550Z,2860
2017-02-04T10:17:33.330Z,2844
2017-02-04T10:18:46.933Z,2888
2017-02-04T10:20:00.621Z,2972
2017-02-04T10:21:15.101Z,3056
2017-02-04T10:22:29.643Z,3120
2017-02-04T10:23:45.046Z,3176
2017-02-04T10:24:58.848Z,3208
2017-02-04T10:26:12.509Z,3224
2017-02-04T10:27:27.060Z,3196
2017-02-04T10:28:41.177Z,3152
2017-02-04T10:29:54.949Z,3112
2017-02-04T10:31:08.414Z,3104
2017-02-04T10:32:22.110Z,3132
2017-02-04T10:33:35.655Z,3184
2017-02-04T10:35:04.260Z,3256
2017-02-04T10:36:18.020Z,3320
2017-02-04T10:37:32.447Z,3388
2017-02-04T10:38:46.085Z,3436
2017-02-04T10:39:59.527Z,3440
2017-02-04T10:41:13.288Z,3436
2017-02-04T10:42:26.798Z,3432
2017-02-04T10:43:40.798Z,3424
2017-02-04T10:44:54.734Z,3412
2017-02-04T10:46:08.822Z,3432
2017-02-04T10:47:22.721Z,3492
2017-02-04T10:48:36.350Z,3564
2017-02-04T10:49:50.118Z,3604
2017-02-04T10:51:03.884Z,3636
2017-02-04T10:52:17.325Z,3648
2017-02-04T10:53:30.968Z,3660
2017-02-04T10:54:45.564Z,3680
2017-02-04T10:55:59.367Z,3716
2017-02-04T10:57:12.808Z,3752
2017-02-04T10:58:26.598Z,3776
2017-02-04T10:59:40.623Z,3780
2017-02-04T11:00:54.278Z,3764
2017-02-04T11:02:08.191Z,3708
2017-02-04T11:03:22.053Z,3636
2017-02-04T11:04:35.710Z,3544
2017-02-04T11:05:49.574Z,3456
2017-02-04T11:07:03.708Z,3392
2017-02-04T11:08:17.440Z,3352
2017-02-04T11:09:31.004Z,3336
2017-02-04T11:10:44.978Z,3348
2017-02-04T11:11:58.452Z,3388
2017-02-04T11:13:12.460Z,3420
2017-02-04T11:14:25.956Z,3424
2017-02-04T11:15:39.806Z,3432
2017-02-04T11:16:53.504Z,3460
2017-02-04T11:18:07.672Z,3504
2017-02-04T11:19:21.180Z,3540
2017-02-04T11:20:36.966Z,3560
2017-02-04T11:21:50.595Z,3560
2017-02-04T11:23:04.756Z,3536
2017-02-04T11:24:18.225Z,3496
2017-02-04T11:25:32.071Z,3460
2017-02-04T11:26:45.619Z,3428
2017-02-04T11:27:59.990Z,3396
2017-02-04T11:29:14.514Z,3352
2017-02-04T11:30:28.597Z,3296
2017-02-04T11:31:42.477Z,3248
2017-02-04T11:32:56.079Z,3204
2017-02-04T11:34:09.667Z,3176
2017-02-04T11:35:23.400Z,3156
2017-02-04T11:36:37.060Z,3140
2017-02-04T11:39:29.483Z,3108
2017-02-04T11:40:46.775Z,3096
2017-02-04T11:42:02.582Z,3088
2017-02-04T11:43:17.118Z,3072
2017-02-04T11:44:33.202Z,3064
2017-02-04T11:45:48.732Z,3056
2017-02-04T11:47:03.866Z,3048
2017-02-04T11:48:18.796Z,3028
2017-02-04T11:49:33.757Z,3012
2017-02-04T11:50:49.363Z,2988
2017-02-04T11:52:04.301Z,2964
2017-02-04T11:53:19.463Z,2940
2017-02-04T11:54:34.013Z,2924
2017-02-04T11:55:48.721Z,2880
2017-02-04T11:57:02.730Z,2824
2017-02-04T11:58:17.853Z,2732
2017-02-04T11:59:32.739Z,2648
2017-02-04T12:00:48.560Z,2564
2017-02-04T12:02:03.733Z,2472
2017-02-04T12:03:18.445Z,2396
2017-02-04T12:04:32.830Z,2304
2017-02-04T12:05:48.351Z,2256
2017-02-04T12:07:22.534Z,2268
2017-02-04T12:08:38.505Z,2324
2017-02-04T12:09:53.124Z,2388
2017-02-04T12:11:07.951Z,2440
2017-02-04T12:12:22.695Z,2448
2017-02-04T12:13:36.999Z,2424
2017-02-04T12:14:51.209Z,2400
2017-02-04T12:16:06.197Z,2372
2017-02-04T12:17:20.953Z,2328
2017-02-04T12:18:35.489Z,2248
2017-02-04T12:19:50.425Z,2160
2017-02-04T12:21:04.522Z,2048
2017-02-04T12:22:18.683Z,1892
2017-02-04T12:23:33.156Z,1780
2017-02-04T12:24:47.778Z,1748
2017-02-04T12:26:02.591Z,1768
2017-02-04T12:27:17.190Z,1820
2017-02-04T12:28:31.175Z,1852
2017-02-04T12:29:46.263Z,1888
2017-02-04T12:31:00.788Z,1932
2017-02-04T12:32:15.720Z,1924
2017-02-04T12:33:30.277Z,1892
2017-02-04T12:34:45.073Z,1820
2017-02-04T12:36:00.019Z,1752
2017-02-04T12:37:17.319Z,1660
2017-02-04T12:38:32.545Z,1560
2017-02-04T12:39:50.000Z,1500
2017-02-04T12:41:06.410Z,1468
2017-02-04T12:42:21.712Z,1448
2017-02-04T12:43:35.922Z,1340
2017-02-04T12:44:51.818Z,1272
2017-02-04T12:46:19.820Z,1204
2017-02-04T12:47:36.323Z,1172
2017-02-04T12:48:51.010Z,1172
2017-02-04T12:50:05.528Z,1204
2017-02-04T12:51:36.742Z,1248
2017-02-04T12:52:51.508Z,1248
2017-02-04T12:54:05.579Z,1212
2017-02-04T12:55:21.080Z,1116
2017-02-04T12:56:36.144Z,1068
2017-02-04T12:57:51.181Z,1096
2017-02-04T12:59:06.223Z,1124
2017-02-04T13:00:21.118Z,1152
2017-02-04T13:01:35.940Z,1148
2017-02-04T13:02:51.658Z,1096
2017-02-04T13:04:06.497Z,1056
2017-02-04T13:05:20.571Z,1048
2017-02-04T13:06:35.960Z,1032
2017-02-04T13:07:50.471Z,1028
2017-02-04T13:09:05.640Z,1048
2017-02-04T13:10:21.015Z,1060
2017-02-04T13:11:36.351Z,1088
2017-02-04T13:12:51.953Z,1096
2017-02-04T13:14:06.936Z,1080
2017-02-04T13:15:22.065Z,1104
2017-02-04T13:16:37.352Z,1112
2017-02-04T13:17:52.004Z,1100
2017-02-04T13:19:06.608Z,1092
2017-02-04T13:20:22.205Z,1060
2017-02-04T13:21:37.897Z,1048
2017-02-04T13:22:55.712Z,964
2017-02-04T13:24:11.223Z,896
2017-02-04T13:25:27.133Z,836
2017-02-04T13:26:42.375Z,784
2017-02-04T13:27:56.438Z,816
2017-02-04T13:29:12.387Z,896
2017-02-04T13:30:27.098Z,996
2017-02-04T13:31:41.550Z,1068
2017-02-04T13:32:57.768Z,1080
2017-02-04T13:34:12.419Z,1048
2017-02-04T13:35:27.760Z,1036
2017-02-04T13:36:44.022Z,1028
2017-02-04T13:37:58.660Z,1036
2017-02-04T13:39:12.631Z,1040
2017-02-04T13:40:27.274Z,1084
2017-02-04T13:41:48.390Z,1140
2017-02-04T13:43:02.611Z,1196
2017-02-04T13:44:17.149Z,1224
2017-02-04T13:45:31.786Z,1212
2017-02-04T13:46:46.003Z,1232
2017-02-04T13:48:01.563Z,1184
2017-02-04T13:49:16.165Z,1204
2017-02-04T13:50:31.714Z,1188
2017-02-04T13:51:47.290Z,1172
2017-02-04T13:53:02.205Z,1136
2017-02-04T13:54:16.987Z,1144
2017-02-04T13:55:31.209Z,1196
2017-02-04T13:56:46.105Z,1228
2017-02-04T13:58:03.732Z,1300
2017-02-04T13:59:18.556Z,1364
2017-02-04T14:00:33.916Z,1356
2017-02-04T14:01:54.684Z,1336
2017-02-04T14:03:12.450Z,1304
2017-02-04T14:04:27.813Z,1332
2017-02-04T14:05:43.058Z,1336
2017-02-04T14:06:57.458Z,1348
2017-02-04T14:08:13.082Z,1360
2017-02-04T14:09:28.963Z,1388
2017-02-04T14:10:45.275Z,1380
2017-02-04T14:12:01.077Z,1356
2017-02-04T14:13:18.031Z,1364
2017-02-04T14:14:32.841Z,1360
2017-02-04T14:15:48.256Z,1368
2017-02-04T14:17:03.305Z,1368
2017-02-04T14:18:18.292Z,1388
2017-02-04T14:19:34.043Z,1360
2017-02-04T14:20:48.828Z,1292
2017-02-04T14:22:02.978Z,1212
2017-02-04T14:23:17.747Z,1156
2017-02-04T14:24:32.356Z,1096
2017-02-04T14:25:47.393Z,1032
2017-02-04T14:27:02.072Z,992
2017-02-04T14:28:17.300Z,944
2017-02-04T14:29:33.086Z,904
2017-02-04T14:30:48.312Z,888
2017-02-04T14:32:03.058Z,872
2017-02-04T14:33:18.441Z,868
2017-02-04T14:34:36.890Z,888
2017-02-04T14:35:57.880Z,896
2017-02-04T14:37:14.669Z,876
2017-02-04T14:38:33.469Z,880
2017-02-04T14:39:47.646Z,896
2017-02-04T14:41:01.632Z,924
2017-02-04T14:42:15.962Z,876
2017-02-04T14:43:34.246Z,796
2017-02-04T14:44:51.301Z,784
2017-02-04T14:46:04.992Z,768
2017-02-04T14:47:18.823Z,740
2017-02-04T14:48:32.884Z,700
2017-02-04T14:49:46.354Z,628
2017-02-04T14:50:59.913Z,596
2017-02-04T14:52:13.912Z,572
2017-02-04T14:53:29.209Z,544
2017-02-04T14:54:43.167Z,492
2017-02-04T14:55:57.049Z,448
2017-02-04T14:57:10.572Z,428
2017-02-04T14:58:24.600Z,436
2017-02-04T14:59:38.929Z,412
2017-02-04T15:00:52.462Z,376
2017-02-04T15:02:06.805Z,356
2017-02-04T15:03:20.360Z,332
2017-02-04T15:04:34.018Z,328
2017-02-04T15:05:48.678Z,336
2017-02-04T15:07:02.258Z,348
2017-02-04T15:08:15.842Z,372
2017-02-04T15:09:29.523Z,388
2017-02-04T15:10:43.047Z,384
2017-02-04T15:11:57.641Z,380
2017-02-04T15:13:11.214Z,388
2017-02-04T15:14:25.258Z,396
2017-02-04T15:15:41.019Z,400
2017-02-04T15:16:54.585Z,400
2017-02-04T15:18:08.748Z,404
2017-02-04T15:19:22.191Z,404
2017-02-04T15:20:35.868Z,412
2017-02-04T15:21:49.376Z,424
2017-02-04T15:23:03.029Z,428
2017-02-04T15:24:17.253Z,428
2017-02-04T15:25:31.216Z,420
2017-02-04T15:26:44.839Z,408
2017-02-04T15:27:58.461Z,388
2017-02-04T15:29:11.954Z,368
2017-02-04T15:30:25.832Z,352
2017-02-04T15:31:39.293Z,336
2017-02-04T15:32:53.338Z,316
2017-02-04T15:34:06.855Z,308
2017-02-04T15:35:20.487Z,292
2017-02-04T15:36:34.220Z,280
2017-02-04T15:37:48.230Z,264
2017-02-04T15:39:02.109Z,268
2017-02-04T15:40:15.704Z,264
2017-02-04T15:41:29.905Z,264
2017-02-04T15:42:43.758Z,248
2017-02-04T15:43:57.231Z,224
2017-02-04T15:45:10.850Z,216
2017-02-04T15:46:24.309Z,212
2017-02-04T15:47:38.126Z,204
2017-02-04T15:48:51.856Z,196
2017-02-04T15:50:05.948Z,196
2017-02-04T15:51:19.473Z,192
2017-02-04T15:52:33.461Z,180
2017-02-04T15:53:46.919Z,176
2017-02-04T15:55:00.467Z,176
2017-02-04T15:56:14.127Z,180
2017-02-04T15:57:27.648Z,176
2017-02-04T15:58:41.915Z,172
2017-02-04T15:59:55.463Z,168
2017-02-04T16:01:10.646Z,160
2017-02-04T16:02:24.918Z,160
2017-02-04T16:03:38.842Z,152
2017-02-04T16:04:52.795Z,144
2017-02-04T16:06:06.667Z,136
2017-02-04T16:07:20.566Z,124
2017-02-04T16:08:34.611Z,104
2017-02-04T16:09:48.256Z,84
2017-02-04T16:11:01.762Z,76
2017-02-04T16:12:15.857Z,64
2017-02-04T16:13:29.699Z,56
2017-02-04T16:14:43.673Z,52
2017-02-04T16:15:57.133Z,52
2017-02-04T16:17:10.735Z,48
2017-02-04T16:18:24.381Z,40
2017-02-04T16:19:38.707Z,36
2017-02-04T16:20:52.841Z,32
2017-02-04T16:22:07.287Z,28
2017-02-04T16:23:21.043Z,28
2017-02-04T16:24:35.078Z,24
2017-02-04T16:25:49.387Z,20
2017-02-04T16:27:03.005Z,16
2017-02-04T16:28:16.645Z,16
2017-02-04T16:29:31.545Z,12
2017-02-04T16:30:45.461Z,12
2017-02-04T16:32:02.068Z,12
2017-02-04T16:33:15.533Z,8
2017-02-04T16:34:29.184Z,8
2017-02-04T16:35:44.099Z,4
2017-02-04T16:36:58.090Z,4
2017-02-04T16:38:11.883Z,4
2017-02-04T16:39:25.443Z,4
2017-02-04T16:40:38.914Z,4
2017-02-04T16:41:52.653Z,0
2017-02-04T16:43:06.104Z,4
2017-02-04T16:44:20.404Z,4
2017-02-04T16:45:34.512Z,0
2017-02-04T16:46:48.447Z,0
2017-02-04T16:48:01.891Z,0
2017-02-04T16:49:15.501Z,0
2017-02-04T16:50:29.317Z,0
2017-02-04T16:51:42.900Z,0
2017-02-04T16:52:56.383Z,0
2017-02-04T16:54:10.827Z,0
2017-02-04T16:55:25.227Z,0
2017-02-04T16:56:39.148Z,0
2017-02-04T16:57:52.643Z,0
2017-02-04T16:59:07.057Z,0
2017-02-04T17:00:20.915Z,0
2017-02-04T17:01:34.950Z,0
2017-02-04T17:02:48.724Z,0
2017-02-04T17:04:02.511Z,0
2017-02-04T17:05:16.067Z,0
2017-02-04T17:06:29.631Z,0
2017-02-04T17:07:43.087Z,0
2017-02-04T17:08:57.589Z,0
2017-02-04T17:10:12.158Z,0
2017-02-04T17:11:26.159Z,0
2017-02-04T17:12:39.655Z,0
2017-02-04T17:13:53.697Z,0
2017-02-04T17:15:07.522Z,0
2017-02-04T17:16:22.034Z,0
2017-02-04T17:17:36.001Z,0
2017-02-04T17:18:49.623Z,0
2017-02-04T17:20:03.047Z,0
2017-02-04T17:21:17.204Z,0
2017-02-04T17:22:30.732Z,0
2017-02-04T17:23:44.503Z,0
2017-02-04T17:24:57.979Z,0
2017-02-04T17:26:11.661Z,0
2017-02-04T17:27:25.841Z,0
2017-02-04T17:28:39.545Z,0